Time;durP1;ratioP1;P1;durP2;ratioP2;P2;SDS_P1;SDS_P2;PMS_P1;PMS_P2;Temp;Humidity;BMP_temperature;BMP_pressure;BME280_temperature;BME280_humidity;BME280_pressure;Samples;Min_cycle;Max_cycle;Signal;HPM_P1;HPM_P2
2021/11/22 00:00:58;;;;;;;34.10;22.15;;;10.00;64.60;;;;;;5079931;28;20370;-59
2021/11/22 00:03:24;;;;;;;33.28;21.70;;;10.00;64.60;;;;;;5066634;28;20036;-63
2021/11/22 00:05:50;;;;;;;27.88;20.73;;;9.90;64.70;;;;;;5080850;28;20024;-60
2021/11/22 00:08:18;;;;;;;31.10;21.63;;;10.00;64.90;;;;;;5079993;28;20024;-59
2021/11/22 00:10:43;;;;;;;30.75;20.60;;;9.90;64.90;;;;;;5077143;28;20107;-57
2021/11/22 00:13:09;;;;;;;29.35;21.02;;;10.00;65.00;;;;;;5079868;28;20040;-61
2021/11/22 00:15:35;;;;;;;27.75;20.73;;;10.00;65.00;;;;;;5078441;28;20381;-63
2021/11/22 00:18:01;;;;;;;29.58;20.45;;;10.00;64.90;;;;;;5079759;28;20488;-59
2021/11/22 00:20:27;;;;;;;32.47;21.50;;;9.90;65.10;;;;;;5079357;28;20349;-62
2021/11/22 00:22:54;;;;;;;29.25;20.38;;;9.90;65.10;;;;;;5066896;28;20056;-61
2021/11/22 00:25:20;;;;;;;29.60;21.85;;;9.90;65.30;;;;;;5054560;28;20366;-62
2021/11/22 00:27:46;;;;;;;29.27;21.58;;;9.90;65.40;;;;;;5060559;28;20025;-61
2021/11/22 00:30:14;;;;;;;30.92;21.15;;;10.00;65.40;;;;;;5059945;28;20520;-63
2021/11/22 00:32:43;;;;;;;29.70;21.02;;;10.00;65.20;;;;;;5058147;28;20486;-61
2021/11/22 00:35:09;;;;;;;32.92;22.15;;;10.10;65.20;;;;;;5043947;28;20449;-60
2021/11/22 00:37:37;;;;;;;33.50;21.13;;;10.00;65.00;;;;;;5042519;28;20021;-62
2021/11/22 00:40:08;;;;;;;31.63;22.67;;;10.00;65.00;;;;;;5045881;28;20032;-59
2021/11/22 00:42:35;;;;;;;30.90;21.48;;;9.90;65.20;;;;;;5059127;28;20065;-59
2021/11/22 00:45:01;;;;;;;32.35;21.90;;;9.90;65.20;;;;;;5063627;28;20029;-60
2021/11/22 00:47:27;;;;;;;31.48;22.67;;;9.90;65.20;;;;;;5045022;28;20092;-58
2021/11/22 00:49:53;;;;;;;32.05;22.10;;;9.80;64.80;;;;;;5066796;28;20032;-59
2021/11/22 00:52:18;;;;;;;36.45;22.13;;;9.80;64.90;;;;;;5063934;28;20032;-58
2021/11/22 00:54:44;;;;;;;32.70;22.73;;;9.80;64.90;;;;;;5063321;28;20502;-59
2021/11/22 00:57:10;;;;;;;31.77;22.73;;;9.80;64.80;;;;;;5062938;28;20116;-60
2021/11/22 00:59:36;;;;;;;30.95;21.77;;;9.80;64.70;;;;;;5061164;28;20081;-64
2021/11/22 01:02:02;;;;;;;36.17;22.30;;;9.70;65.00;;;;;;5061554;28;20060;-58
2021/11/22 01:04:28;;;;;;;29.88;22.20;;;9.80;65.00;;;;;;5043829;28;20519;-59
2021/11/22 01:06:54;;;;;;;32.53;23.00;;;9.80;65.10;;;;;;5062232;28;20036;-59
2021/11/22 01:09:20;;;;;;;34.95;23.98;;;9.90;64.90;;;;;;5064097;28;20024;-60
2021/11/22 01:11:45;;;;;;;31.42;22.45;;;9.80;64.90;;;;;;5062757;28;20029;-61
2021/11/22 01:14:13;;;;;;;30.00;22.00;;;9.80;65.00;;;;;;5065405;28;20442;-63
2021/11/22 01:16:39;;;;;;;34.97;22.40;;;9.80;65.00;;;;;;5058663;28;20116;-60
2021/11/22 01:19:06;;;;;;;30.63;21.60;;;9.80;65.00;;;;;;5060483;28;20017;-60
2021/11/22 01:21:32;;;;;;;31.05;22.55;;;9.80;64.90;;;;;;5049358;28;20087;-58
2021/11/22 01:23:58;;;;;;;32.08;21.90;;;9.80;64.70;;;;;;5083328;28;20031;-61
2021/11/22 01:26:25;;;;;;;31.65;23.10;;;9.80;64.80;;;;;;5084405;28;20028;-60
2021/11/22 01:28:51;;;;;;;32.85;22.75;;;9.70;64.90;;;;;;5084138;28;20051;-60
2021/11/22 01:31:17;;;;;;;31.75;22.38;;;9.70;64.90;;;;;;5082745;28;20150;-60
2021/11/22 01:33:43;;;;;;;34.45;23.17;;;9.70;64.90;;;;;;5080283;28;20063;-61
2021/11/22 01:36:09;;;;;;;29.33;21.65;;;9.70;64.50;;;;;;5084340;28;20465;-61
2021/11/22 01:38:35;;;;;;;30.27;22.13;;;9.80;64.50;;;;;;5079327;28;20025;-61
2021/11/22 01:41:01;;;;;;;31.40;22.27;;;9.90;64.30;;;;;;5082636;28;20051;-60
2021/11/22 01:43:28;;;;;;;31.20;21.67;;;9.90;63.90;;;;;;5081390;28;20029;-58
2021/11/22 01:45:54;;;;;;;32.35;21.45;;;10.00;63.70;;;;;;5084335;28;20572;-61
2021/11/22 01:48:20;;;;;;;29.65;22.42;;;10.00;63.50;;;;;;5080015;28;20019;-58
2021/11/22 01:50:48;;;;;;;33.90;22.85;;;10.10;63.20;;;;;;5082527;28;20194;-60
2021/11/22 01:53:15;;;;;;;31.35;21.95;;;10.00;63.00;;;;;;5083974;28;20040;-57
2021/11/22 01:55:43;;;;;;;30.65;22.33;;;9.90;62.90;;;;;;5080121;28;20031;-52
2021/11/22 01:58:09;;;;;;;31.40;22.95;;;9.90;63.00;;;;;;5083569;28;20046;-56
2021/11/22 02:00:41;;;;;;;30.35;21.42;;;9.90;63.00;;;;;;5083671;28;20030;-54
2021/11/22 02:03:08;;;;;;;30.58;21.98;;;9.90;63.00;;;;;;5082540;28;20020;-60
2021/11/22 02:05:35;;;;;;;31.65;21.98;;;9.90;63.00;;;;;;5080098;28;20113;-58
2021/11/22 02:08:02;;;;;;;31.00;21.75;;;10.00;62.90;;;;;;5081229;28;20035;-60
2021/11/22 02:10:28;;;;;;;28.52;20.77;;;10.00;62.80;;;;;;5080600;28;20073;-60
2021/11/22 02:12:54;;;;;;;29.10;21.65;;;10.00;62.60;;;;;;5083305;28;20024;-60
2021/11/22 02:15:20;;;;;;;29.90;21.77;;;9.90;62.60;;;;;;5082687;28;20025;-60
2021/11/22 02:17:48;;;;;;;30.70;20.63;;;9.90;62.80;;;;;;5082411;28;20028;-62
2021/11/22 02:20:24;;;;;;;29.20;21.92;;;9.80;62.90;;;;;;5085427;28;20100;-60
2021/11/22 02:22:52;;;;;;;30.20;22.02;;;9.80;63.00;;;;;;5069268;28;20044;-59
2021/11/22 02:25:19;;;;;;;30.90;22.08;;;9.90;63.00;;;;;;5058194;28;20025;-61
2021/11/22 02:27:46;;;;;;;30.55;21.95;;;9.80;62.90;;;;;;5061061;28;20020;-61
2021/11/22 02:30:14;;;;;;;32.00;21.13;;;9.90;63.00;;;;;;5065624;28;20021;-65
2021/11/22 02:32:42;;;;;;;28.83;20.77;;;9.90;62.80;;;;;;5043473;28;20033;-61
2021/11/22 02:35:12;;;;;;;32.05;22.80;;;10.00;62.80;;;;;;5061393;28;20024;-61
2021/11/22 02:37:38;;;;;;;28.15;21.73;;;10.00;62.70;;;;;;5045020;28;20119;-56
2021/11/22 02:40:06;;;;;;;30.15;21.08;;;9.90;62.60;;;;;;5064440;28;20112;-61
2021/11/22 02:42:40;;;;;;;28.27;20.23;;;9.80;62.70;;;;;;5058230;28;20474;-61
2021/11/22 02:45:07;;;;;;;28.67;21.15;;;9.80;62.80;;;;;;5059669;28;20516;-62
2021/11/22 02:47:33;;;;;;;31.10;21.02;;;9.80;62.60;;;;;;5061978;28;20119;-60
2021/11/22 02:49:59;;;;;;;30.02;20.60;;;9.80;62.50;;;;;;5062494;28;20026;-59
2021/11/22 02:52:25;;;;;;;27.95;20.63;;;9.80;62.30;;;;;;5063041;28;20427;-61
2021/11/22 02:54:50;;;;;;;29.55;21.63;;;9.70;62.30;;;;;;5060745;28;20553;-59
2021/11/22 02:57:16;;;;;;;30.67;21.00;;;9.70;62.50;;;;;;5053026;28;20021;-60
2021/11/22 02:59:43;;;;;;;30.20;21.33;;;9.70;62.60;;;;;;5066945;28;20025;-54
2021/11/22 03:02:13;;;;;;;29.27;21.00;;;9.70;62.60;;;;;;5072533;28;20039;-58
2021/11/22 03:04:41;;;;;;;28.00;21.52;;;9.70;62.70;;;;;;5062543;28;20503;-61
2021/11/22 03:07:08;;;;;;;30.70;20.80;;;9.70;62.70;;;;;;5052638;28;20055;-59
2021/11/22 03:09:35;;;;;;;29.55;21.25;;;9.80;62.50;;;;;;5058543;28;20024;-61
2021/11/22 03:12:03;;;;;;;29.85;21.17;;;9.80;62.50;;;;;;5072842;28;20085;-55
2021/11/22 03:14:30;;;;;;;28.65;21.02;;;9.80;62.50;;;;;;5069941;28;20020;-59
2021/11/22 03:16:56;;;;;;;29.95;21.75;;;9.80;62.80;;;;;;5061365;28;20036;-61
2021/11/22 03:19:22;;;;;;;28.35;20.15;;;9.80;62.30;;;;;;5071987;28;20489;-56
2021/11/22 03:21:49;;;;;;;29.23;20.48;;;9.80;62.30;;;;;;5060957;28;20534;-60
2021/11/22 03:24:15;;;;;;;27.95;20.10;;;9.80;62.10;;;;;;5045377;28;20119;-57
2021/11/22 03:26:41;;;;;;;31.02;21.67;;;9.80;62.00;;;;;;5051440;28;20120;-58
2021/11/22 03:29:07;;;;;;;29.08;21.77;;;9.90;62.10;;;;;;5068570;28;20081;-60
2021/11/22 03:31:36;;;;;;;31.88;23.45;;;9.80;62.00;;;;;;5071989;28;20115;-57
2021/11/22 03:34:03;;;;;;;29.92;22.52;;;9.80;62.00;;;;;;5054750;28;20039;-59
2021/11/22 03:36:31;;;;;;;30.77;22.45;;;9.70;62.00;;;;;;5034041;28;20452;-60
2021/11/22 03:38:57;;;;;;;31.38;22.92;;;9.70;62.10;;;;;;5052405;28;20025;-63
2021/11/22 03:41:24;;;;;;;33.10;23.27;;;9.80;62.10;;;;;;5051740;28;20132;-59
2021/11/22 03:43:55;;;;;;;32.17;23.05;;;9.70;62.20;;;;;;5034951;28;20052;-62
2021/11/22 03:46:21;;;;;;;33.63;22.70;;;9.70;62.20;;;;;;5034733;28;20096;-61
2021/11/22 03:48:48;;;;;;;33.28;24.23;;;9.70;62.20;;;;;;5034190;28;20032;-59
2021/11/22 03:51:14;;;;;;;34.22;23.38;;;9.70;62.30;;;;;;5051039;28;20029;-59
2021/11/22 03:53:40;;;;;;;33.00;23.05;;;9.70;62.30;;;;;;5032957;28;20044;-59
2021/11/22 03:56:06;;;;;;;35.47;24.25;;;9.70;62.30;;;;;;5037601;28;20032;-62
2021/11/22 03:58:32;;;;;;;33.28;23.42;;;9.70;62.30;;;;;;5051410;28;20025;-60
2021/11/22 04:00:58;;;;;;;34.40;23.95;;;9.60;62.40;;;;;;5034489;28;20484;-61
2021/11/22 04:03:24;;;;;;;34.63;24.65;;;9.60;62.80;;;;;;5051345;28;20043;-61
2021/11/22 04:05:50;;;;;;;34.85;25.08;;;9.60;63.00;;;;;;5035708;28;20033;-60
2021/11/22 04:08:16;;;;;;;36.13;25.25;;;9.60;63.00;;;;;;5053590;28;20031;-57
2021/11/22 04:10:43;;;;;;;36.88;25.95;;;9.60;62.90;;;;;;5051572;28;20021;-57
2021/11/22 04:13:09;;;;;;;37.35;24.50;;;9.60;62.80;;;;;;5050884;28;20037;-57
2021/11/22 04:15:36;;;;;;;37.40;25.15;;;9.60;63.00;;;;;;5051306;28;20036;-55
2021/11/22 04:18:01;;;;;;;36.03;25.75;;;9.60;63.00;;;;;;5033818;28;20120;-59
2021/11/22 04:20:27;;;;;;;38.97;27.20;;;9.50;63.10;;;;;;5051265;28;20103;-60
2021/11/22 04:22:53;;;;;;;39.33;27.00;;;9.60;63.20;;;;;;5056722;28;20072;-59
2021/11/22 04:25:20;;;;;;;39.13;26.95;;;9.50;63.20;;;;;;5050392;28;20049;-57
2021/11/22 04:27:47;;;;;;;37.25;26.52;;;9.50;63.40;;;;;;5044997;28;20460;-60
2021/11/22 04:30:13;;;;;;;41.05;26.90;;;9.50;63.40;;;;;;5060231;28;20028;-62
2021/11/22 04:32:39;;;;;;;36.50;26.30;;;9.50;63.40;;;;;;5059485;28;20036;-63
2021/11/22 04:35:08;;;;;;;39.47;27.05;;;9.60;63.50;;;;;;5059253;28;20028;-62
2021/11/22 04:37:35;;;;;;;35.42;25.15;;;9.50;63.30;;;;;;5042702;28;20032;-63
2021/11/22 04:40:01;;;;;;;39.35;26.08;;;9.60;63.20;;;;;;5057069;28;20074;-58
2021/11/22 04:42:27;;;;;;;38.35;26.52;;;9.60;63.10;;;;;;5056635;28;20047;-60
2021/11/22 04:44:53;;;;;;;41.45;27.13;;;9.60;63.20;;;;;;5062026;28;20032;-59
2021/11/22 04:47:20;;;;;;;35.53;25.88;;;9.60;63.20;;;;;;5059053;28;20025;-60
2021/11/22 04:49:51;;;;;;;39.65;27.88;;;9.60;63.30;;;;;;5060992;28;20032;-66
2021/11/22 04:52:18;;;;;;;40.70;27.90;;;9.70;63.20;;;;;;5059678;28;20040;-60
2021/11/22 04:54:45;;;;;;;38.85;26.52;;;9.60;62.90;;;;;;5061211;28;20024;-57
2021/11/22 04:57:11;;;;;;;36.83;26.67;;;9.60;63.00;;;;;;5039257;28;20037;-60
2021/11/22 04:59:37;;;;;;;37.70;26.92;;;9.60;62.90;;;;;;5059884;28;20048;-57
2021/11/22 05:02:05;;;;;;;38.35;28.20;;;9.60;62.90;;;;;;5043536;28;20029;-61
2021/11/22 05:04:30;;;;;;;37.03;26.35;;;9.60;63.10;;;;;;5057990;28;20160;-60
2021/11/22 05:06:56;;;;;;;39.25;28.20;;;9.60;63.00;;;;;;5058571;28;20096;-60
2021/11/22 05:09:23;;;;;;;37.47;27.17;;;9.70;63.00;;;;;;5063552;28;20143;-59
2021/11/22 05:11:49;;;;;;;40.20;27.48;;;9.70;62.90;;;;;;5040395;28;20025;-61
2021/11/22 05:14:16;;;;;;;41.63;28.77;;;9.70;62.70;;;;;;5060464;28;20029;-61
2021/11/22 05:16:43;;;;;;;37.88;27.25;;;9.70;62.50;;;;;;5042733;28;20025;-61
2021/11/22 05:19:13;;;;;;;39.13;27.40;;;9.70;62.50;;;;;;5061104;28;20476;-65
2021/11/22 05:21:39;;;;;;;39.13;26.85;;;9.70;62.80;;;;;;5056942;28;20121;-66
2021/11/22 05:24:05;;;;;;;40.22;27.30;;;9.70;62.70;;;;;;5061160;28;20075;-63
2021/11/22 05:26:32;;;;;;;37.67;27.02;;;9.70;62.40;;;;;;5045923;28;20027;-62
2021/11/22 05:28:58;;;;;;;37.05;27.15;;;9.70;62.40;;;;;;5062030;28;20032;-56
2021/11/22 05:31:24;;;;;;;36.50;26.38;;;9.80;62.30;;;;;;5063614;28;20021;-56
2021/11/22 05:33:51;;;;;;;39.08;27.88;;;9.70;62.40;;;;;;5065838;28;20033;-59
2021/11/22 05:36:17;;;;;;;39.42;27.13;;;9.70;62.40;;;;;;5061001;28;20025;-61
2021/11/22 05:38:44;;;;;;;38.05;27.30;;;9.70;62.50;;;;;;5059432;28;20118;-61
2021/11/22 05:43:54;;;;;;;39.42;26.65;;;9.70;62.50;;;;;;5054146;28;20159;-59
2021/11/22 05:46:20;;;;;;;37.63;27.20;;;9.80;62.40;;;;;;5055097;28;20103;-63
2021/11/22 05:48:45;;;;;;;34.60;25.75;;;9.80;62.30;;;;;;5046590;28;20437;-60
2021/11/22 05:51:13;;;;;;;37.90;26.65;;;9.80;62.40;;;;;;5054655;28;20151;-60
2021/11/22 05:53:42;;;;;;;45.95;28.00;;;9.80;62.20;;;;;;5070440;28;20064;-56
2021/11/22 05:56:08;;;;;;;42.08;27.10;;;9.70;62.30;;;;;;5069813;28;20109;-59
2021/11/22 05:58:34;;;;;;;37.70;26.95;;;9.70;62.50;;;;;;5059395;28;20091;-60
2021/11/22 06:01:02;;;;;;;46.65;27.55;;;9.80;63.00;;;;;;5054348;28;20497;-60
2021/11/22 06:03:28;;;;;;;36.35;26.55;;;9.80;62.30;;;;;;5052741;28;20102;-62
2021/11/22 06:05:55;;;;;;;38.42;26.52;;;9.80;62.10;;;;;;5054640;28;20029;-61
2021/11/22 06:08:21;;;;;;;54.78;27.52;;;9.70;62.80;;;;;;5023182;28;20017;-54
2021/11/22 06:10:49;;;;;;;57.63;28.60;;;9.70;62.40;;;;;;5073841;28;20031;-59
2021/11/22 06:13:15;;;;;;;39.30;24.50;;;9.60;62.50;;;;;;5072710;28;20078;-63
2021/11/22 06:15:42;;;;;;;39.22;26.85;;;9.70;62.50;;;;;;5053681;28;20037;-61
2021/11/22 06:18:08;;;;;;;39.42;24.88;;;9.60;62.40;;;;;;5054277;28;20108;-63
2021/11/22 06:20:34;;;;;;;35.40;25.95;;;9.60;62.40;;;;;;5034914;28;20025;-61
2021/11/22 06:23:00;;;;;;;38.35;26.75;;;9.70;62.40;;;;;;5054045;28;20075;-57
2021/11/22 06:25:26;;;;;;;46.25;26.15;;;9.70;62.30;;;;;;5052751;28;20025;-59
2021/11/22 06:27:52;;;;;;;44.90;26.67;;;9.70;62.20;;;;;;5053992;28;20465;-51
2021/11/22 06:30:18;;;;;;;72.53;27.85;;;9.70;62.20;;;;;;5073670;28;20029;-59
2021/11/22 06:32:44;;;;;;;36.38;25.00;;;9.80;62.20;;;;;;5073005;28;20024;-54
2021/11/22 06:35:11;;;;;;;51.03;27.35;;;9.80;62.20;;;;;;5073449;28;20056;-61
2021/11/22 06:37:36;;;;;;;40.83;25.45;;;9.80;62.20;;;;;;5052838;28;20025;-58
2021/11/22 06:40:07;;;;;;;43.42;28.67;;;9.80;62.00;;;;;;5064894;28;20036;-60
2021/11/22 06:42:33;;;;;;;36.53;25.67;;;9.80;61.90;;;;;;5035051;28;20040;-64
2021/11/22 06:45:18;;;;;;;34.17;25.05;;;9.90;61.80;;;;;;5053227;28;20036;-59
2021/11/22 06:47:44;;;;;;;35.63;25.13;;;9.80;61.80;;;;;;5053096;28;20108;-61
2021/11/22 06:50:10;;;;;;;35.50;25.48;;;9.90;61.80;;;;;;5035585;28;20107;-59
2021/11/22 06:52:36;;;;;;;39.22;26.25;;;9.90;61.70;;;;;;5034778;28;20048;-55
2021/11/22 06:55:03;;;;;;;43.22;25.80;;;9.90;61.80;;;;;;5052742;28;20041;-60
2021/11/22 06:57:47;;;;;;;36.22;25.00;;;9.90;61.80;;;;;;5053320;28;20036;-58
2021/11/22 07:00:15;;;;;;;38.90;25.88;;;10.00;61.70;;;;;;5053583;28;20021;-56
2021/11/22 07:02:41;;;;;;;42.28;26.63;;;9.90;61.40;;;;;;5018475;28;20041;-62
2021/11/22 07:05:08;;;;;;;42.80;26.75;;;10.00;61.60;;;;;;5052986;28;20032;-57
2021/11/22 07:07:34;;;;;;;49.30;25.88;;;10.00;61.60;;;;;;5052349;28;20467;-60
2021/11/22 07:10:00;;;;;;;50.60;27.02;;;10.10;61.30;;;;;;5035344;28;20021;-60
2021/11/22 07:12:26;;;;;;;39.58;26.40;;;10.10;61.00;;;;;;5053121;28;20032;-60
2021/11/22 07:14:53;;;;;;;43.80;25.75;;;10.00;61.10;;;;;;5052657;28;20478;-61
2021/11/22 07:17:19;;;;;;;36.33;24.98;;;9.90;61.30;;;;;;5052624;28;20029;-61
2021/11/22 07:19:45;;;;;;;38.72;25.83;;;10.00;61.50;;;;;;5051451;28;20109;-61
2021/11/22 07:22:11;;;;;;;35.03;24.70;;;10.00;61.40;;;;;;5052494;28;20098;-61
2021/11/22 07:24:40;;;;;;;36.55;25.58;;;10.10;61.20;;;;;;5034258;28;20094;-59
2021/11/22 07:27:07;;;;;;;36.00;24.92;;;10.10;61.00;;;;;;5052891;28;20033;-63
2021/11/22 07:29:33;;;;;;;34.40;25.88;;;10.00;61.00;;;;;;5052531;28;20024;-62
2021/11/22 07:32:00;;;;;;;35.63;25.27;;;10.00;61.20;;;;;;5034873;28;20074;-59
2021/11/22 07:34:26;;;;;;;36.13;25.55;;;10.00;61.20;;;;;;5033444;28;20039;-60
2021/11/22 07:36:51;;;;;;;37.42;25.52;;;10.00;61.30;;;;;;5052156;28;20033;-60
2021/11/22 07:39:17;;;;;;;35.85;24.42;;;10.00;61.30;;;;;;5034704;28;20481;-62
2021/11/22 07:41:44;;;;;;;38.33;24.83;;;10.00;62.00;;;;;;5034442;28;20036;-59
2021/11/22 07:44:10;;;;;;;37.47;24.88;;;10.00;61.50;;;;;;5052241;28;20032;-60
2021/11/22 07:46:36;;;;;;;36.67;25.20;;;9.90;61.70;;;;;;5034053;28;20533;-57
2021/11/22 07:49:01;;;;;;;36.33;23.95;;;10.00;61.80;;;;;;5051456;28;20021;-59
2021/11/22 07:51:27;;;;;;;33.35;22.98;;;10.00;61.70;;;;;;5041011;28;20031;-56
2021/11/22 07:53:53;;;;;;;33.80;23.88;;;9.90;62.10;;;;;;5066191;28;20496;-57
2021/11/22 07:56:19;;;;;;;32.72;24.30;;;9.90;61.90;;;;;;5072108;28;20370;-59
2021/11/22 07:58:45;;;;;;;35.50;24.75;;;10.00;62.00;;;;;;5071598;28;20039;-61
2021/11/22 08:01:10;;;;;;;39.33;24.92;;;10.00;62.00;;;;;;5071970;28;20025;-60
2021/11/22 08:03:36;;;;;;;37.58;24.27;;;10.10;61.80;;;;;;5071952;28;20056;-62
2021/11/22 08:06:03;;;;;;;35.63;23.63;;;10.10;61.70;;;;;;5052036;28;20040;-59
2021/11/22 08:08:31;;;;;;;38.50;25.50;;;10.00;61.80;;;;;;5061468;28;20100;-60
2021/11/22 08:11:06;;;;;;;38.08;25.25;;;10.10;61.90;;;;;;5051700;28;20319;-61
2021/11/22 08:13:52;;;;;;;31.55;23.13;;;10.10;61.80;;;;;;5061901;28;20051;-63
2021/11/22 08:16:20;;;;;;;41.72;25.27;;;10.10;61.80;;;;;;5054274;28;20041;-63
2021/11/22 08:18:46;;;;;;;39.65;24.83;;;10.00;62.00;;;;;;5043811;28;20146;-59
2021/11/22 08:21:12;;;;;;;35.80;24.15;;;10.00;62.20;;;;;;5067366;28;20056;-62
2021/11/22 08:23:39;;;;;;;34.40;24.35;;;10.00;62.30;;;;;;5040915;28;20115;-60
2021/11/22 08:26:06;;;;;;;33.83;26.10;;;10.10;62.30;;;;;;5040625;28;20056;-59
2021/11/22 08:28:32;;;;;;;39.78;26.05;;;10.10;62.20;;;;;;5042797;28;20025;-62
2021/11/22 08:30:58;;;;;;;41.65;26.60;;;10.10;62.10;;;;;;5059412;28;20035;-64
2021/11/22 08:33:24;;;;;;;37.20;25.48;;;10.20;62.10;;;;;;5060631;28;20028;-61
2021/11/22 08:35:50;;;;;;;37.90;25.42;;;10.30;62.10;;;;;;5043594;28;20850;-56
2021/11/22 08:38:17;;;;;;;37.03;25.13;;;10.30;62.00;;;;;;5038579;28;20068;-61
2021/11/22 08:40:45;;;;;;;42.05;26.50;;;10.40;61.80;;;;;;5061112;28;20029;-64
2021/11/22 08:43:14;;;;;;;35.53;25.90;;;10.50;61.80;;;;;;5060008;28;20033;-64
2021/11/22 08:45:41;;;;;;;44.97;28.58;;;10.50;61.60;;;;;;5058220;28;20025;-57
2021/11/22 08:48:07;;;;;;;40.10;26.85;;;10.50;61.60;;;;;;5056939;28;20371;-56
2021/11/22 08:50:34;;;;;;;38.20;27.27;;;10.50;61.80;;;;;;5062476;28;20041;-60
2021/11/22 08:53:00;;;;;;;35.53;27.05;;;10.60;61.80;;;;;;5048642;28;20520;-56
2021/11/22 08:55:27;;;;;;;55.05;28.05;;;10.50;61.80;;;;;;5052006;28;20083;-60
2021/11/22 08:57:53;;;;;;;42.08;28.13;;;10.50;62.00;;;;;;5050263;28;20025;-63
2021/11/22 09:00:24;;;;;;;58.45;30.08;;;10.50;62.00;;;;;;5054533;28;20044;-65
2021/11/22 09:02:51;;;;;;;46.20;29.05;;;10.50;62.10;;;;;;5036933;28;20114;-62
2021/11/22 09:05:18;;;;;;;51.13;29.25;;;10.50;62.10;;;;;;5037453;28;20036;-65
2021/11/22 09:07:44;;;;;;;49.17;29.05;;;10.50;62.40;;;;;;5054553;28;20032;-62
2021/11/22 09:10:09;;;;;;;44.85;27.52;;;10.50;62.70;;;;;;5054704;28;20025;-60
2021/11/22 09:12:36;;;;;;;36.63;26.85;;;10.40;63.10;;;;;;5049995;28;20043;-66
2021/11/22 09:15:03;;;;;;;40.90;26.40;;;10.30;63.50;;;;;;5056746;28;20115;-62
2021/11/22 09:17:29;;;;;;;44.92;28.55;;;10.30;63.40;;;;;;5075443;28;20039;-60
2021/11/22 09:19:55;;;;;;;43.70;28.55;;;10.30;63.40;;;;;;5074336;28;20032;-62
2021/11/22 09:22:21;;;;;;;46.88;29.73;;;10.30;63.50;;;;;;5076799;28;20132;-60
2021/11/22 09:24:47;;;;;;;47.80;29.73;;;10.30;63.60;;;;;;5094862;28;20540;-55
2021/11/22 09:27:12;;;;;;;40.05;28.08;;;10.30;63.80;;;;;;5095134;28;20103;-60
2021/11/22 09:29:38;;;;;;;44.88;28.90;;;10.30;63.80;;;;;;5094388;28;20102;-58
2021/11/22 09:32:07;;;;;;;39.35;28.50;;;10.40;63.80;;;;;;5094782;28;20366;-58
2021/11/22 09:34:34;;;;;;;44.15;29.30;;;10.40;63.80;;;;;;5095339;28;20032;-59
2021/11/22 09:37:00;;;;;;;44.83;30.02;;;10.30;63.90;;;;;;5094820;28;20532;-61
2021/11/22 09:39:26;;;;;;;45.70;29.10;;;10.30;64.00;;;;;;5077123;28;20055;-61
2021/11/22 09:41:52;;;;;;;49.20;29.85;;;10.40;64.10;;;;;;5094587;28;20067;-63
2021/11/22 09:44:23;;;;;;;48.50;30.63;;;10.30;64.30;;;;;;5095051;28;20032;-60
2021/11/22 09:46:52;;;;;;;45.50;30.10;;;10.20;64.80;;;;;;5094288;28;20388;-58
2021/11/22 09:49:18;;;;;;;54.53;30.85;;;10.20;64.80;;;;;;5079948;28;20111;-61
2021/11/22 09:51:44;;;;;;;56.83;31.83;;;10.30;64.90;;;;;;5072573;28;20111;-63
2021/11/22 09:54:11;;;;;;;55.45;31.00;;;10.40;64.80;;;;;;5086557;28;20447;-69
2021/11/22 09:56:37;;;;;;;48.40;30.77;;;10.40;64.80;;;;;;5093335;28;20023;-71
2021/11/22 09:59:04;;;;;;;49.33;31.02;;;10.40;64.70;;;;;;5094370;28;20414;-61
2021/11/22 10:01:34;;;;;;;44.60;30.80;;;10.40;64.50;;;;;;5094582;28;20027;-64
2021/11/22 10:04:03;;;;;;;46.67;30.55;;;10.40;64.50;;;;;;5090493;28;20020;-52
2021/11/22 10:06:57;;;;;;;61.85;33.72;;;10.40;64.50;;;;;;5094169;28;20153;-59
2021/11/22 10:09:33;;;;;;;;;;;10.40;64.60;;;;;;5093751;28;20028;-56
2021/11/22 10:12:07;;;;;;;44.97;30.23;;;10.40;64.70;;;;;;5093141;28;19908;-64
2021/11/22 10:14:53;;;;;;;;;;;10.40;64.50;;;;;;5094555;28;20481;-56
2021/11/22 10:17:20;;;;;;;47.47;31.40;;;10.30;64.70;;;;;;5079521;28;20293;-61
2021/11/22 10:19:47;;;;;;;42.30;29.80;;;10.40;64.80;;;;;;5089011;28;20024;-59
2021/11/22 10:22:20;;;;;;;46.17;30.92;;;10.50;64.60;;;;;;5080815;28;20056;-62
2021/11/22 10:24:46;;;;;;;44.55;31.23;;;10.40;64.30;;;;;;5053720;28;20084;-61
2021/11/22 10:27:35;;;;;;;47.10;31.38;;;10.50;64.50;;;;;;5053783;28;20029;-62
2021/11/22 10:30:36;;;;;;;47.28;30.17;;;10.60;64.00;;;;;;5058976;28;20078;-61
2021/11/22 10:33:10;;;;;;;44.45;29.60;;;10.60;63.80;;;;;;5041868;28;20470;-60
2021/11/22 10:35:38;;;;;;;41.75;30.42;;;10.60;63.90;;;;;;5059753;28;20025;-54
2021/11/22 10:38:06;;;;;;;48.85;31.98;;;10.60;63.70;;;;;;5060419;28;20025;-55
2021/11/22 10:40:36;;;;;;;42.47;29.08;;;10.70;63.60;;;;;;5063538;28;20028;-62
2021/11/22 10:43:04;;;;;;;52.67;29.13;;;10.60;63.50;;;;;;5061612;28;20028;-60
2021/11/22 10:45:56;;;;;;;51.38;31.50;;;10.60;63.40;;;;;;5062999;28;20025;-59
2021/11/22 10:48:30;;;;;;;46.47;30.33;;;10.70;63.20;;;;;;5042391;28;20028;-62
2021/11/22 10:51:23;;;;;;;52.40;28.58;;;10.60;63.30;;;;;;5060298;28;20525;-61
2021/11/22 10:53:50;;;;;;;47.33;29.48;;;10.70;63.30;;;;;;5040646;28;20048;-64
2021/11/22 10:56:27;;;;;;;51.15;29.50;;;10.60;63.20;;;;;;5037675;28;20037;-62
2021/11/22 10:58:58;;;;;;;45.85;28.77;;;10.60;63.30;;;;;;5064988;28;20062;-60
2021/11/22 11:01:44;;;;;;;50.53;27.73;;;10.70;63.20;;;;;;5060527;28;20120;-61
2021/11/22 11:04:45;;;;;;;48.78;28.83;;;10.80;63.00;;;;;;5045748;28;20113;-61
2021/11/22 11:07:18;;;;;;;47.67;30.08;;;10.80;62.90;;;;;;5061088;28;20092;-60
2021/11/22 11:09:53;;;;;;;42.78;27.77;;;10.80;63.00;;;;;;5060004;28;20158;-57
2021/11/22 11:12:23;;;;;;;45.28;28.63;;;10.80;62.90;;;;;;5061740;28;20098;-61
2021/11/22 11:14:55;;;;;;;42.03;29.48;;;10.90;62.90;;;;;;5064574;28;20035;-59
2021/11/22 11:17:36;;;;;;;39.10;28.55;;;10.90;62.50;;;;;;5040658;28;20473;-63
2021/11/22 11:20:11;;;;;;;39.33;29.00;;;10.90;62.70;;;;;;5063665;28;20043;-60
2021/11/22 11:22:40;;;;;;;42.88;29.23;;;10.90;62.60;;;;;;5062269;28;20049;-60
2021/11/22 11:25:07;;;;;;;48.17;29.30;;;11.00;62.60;;;;;;5080820;28;20073;-64
2021/11/22 11:27:41;;;;;;;39.95;27.52;;;10.90;62.60;;;;;;5077813;28;20025;-61
2021/11/22 11:30:12;;;;;;;43.65;27.63;;;11.00;62.60;;;;;;5078152;28;20016;-54
2021/11/22 11:32:41;;;;;;;41.20;28.05;;;10.90;62.50;;;;;;5079935;28;20031;-60
2021/11/22 11:35:15;;;;;;;43.47;26.85;;;10.90;62.60;;;;;;5079006;28;20028;-59
2021/11/22 11:38:19;;;;;;;45.15;27.75;;;10.90;62.80;;;;;;5078686;28;20033;-59
2021/11/22 11:40:57;;;;;;;44.70;28.55;;;11.00;62.70;;;;;;5019502;28;20080;-60
2021/11/22 11:43:39;;;;;;;39.92;28.35;;;11.00;62.60;;;;;;5025745;28;20056;-61
2021/11/22 11:46:24;;;;;;;38.97;27.02;;;11.00;62.60;;;;;;5026115;28;20030;-62
2021/11/22 11:49:03;;;;;;;38.90;25.38;;;11.00;62.60;;;;;;5025847;28;20041;-58
2021/11/22 11:51:39;;;;;;;37.30;26.13;;;11.00;62.70;;;;;;5027015;28;20053;-60
2021/11/22 11:54:23;;;;;;;40.75;27.23;;;11.10;62.50;;;;;;5026012;28;20525;-61
2021/11/22 11:56:55;;;;;;;39.17;26.80;;;11.10;62.30;;;;;;5017660;28;20108;-63
2021/11/22 11:59:37;;;;;;;38.90;26.08;;;11.20;62.40;;;;;;5019218;28;20033;-53
2021/11/22 12:02:28;;;;;;;37.17;26.63;;;11.20;62.00;;;;;;5006753;28;20037;-59
2021/11/22 12:05:01;;;;;;;40.35;25.10;;;11.20;62.00;;;;;;5024289;28;20176;-59
2021/11/22 12:07:38;;;;;;;38.00;24.80;;;11.10;62.30;;;;;;5007649;28;20136;-60
2021/11/22 12:10:23;;;;;;;38.03;25.40;;;11.10;62.50;;;;;;5008122;28;20155;-61
2021/11/22 12:12:57;;;;;;;;;;;11.20;62.50;;;;;;5080321;28;20122;-60
2021/11/22 12:15:30;;;;;;;35.55;25.90;;;11.10;62.50;;;;;;5070522;28;20026;-61
2021/11/22 12:18:01;;;;;;;40.30;26.75;;;11.10;62.50;;;;;;5075974;28;20045;-62
2021/11/22 12:20:27;;;;;;;44.60;26.08;;;11.10;62.60;;;;;;5093829;28;20461;-60
2021/11/22 12:23:08;;;;;;;38.63;25.70;;;11.10;62.80;;;;;;5062930;28;20055;-63
2021/11/22 12:25:44;;;;;;;38.47;25.23;;;11.10;62.90;;;;;;5040877;28;20079;-63
2021/11/22 12:28:26;;;;;;;43.03;25.60;;;11.10;63.00;;;;;;5054908;28;20465;-65
2021/11/22 12:31:05;;;;;;;39.97;25.83;;;11.20;63.20;;;;;;5041760;28;20036;-64
2021/11/22 12:33:42;;;;;;;38.95;26.45;;;11.20;63.30;;;;;;5058979;28;20124;-64
2021/11/22 12:36:13;;;;;;;39.47;26.27;;;11.10;63.60;;;;;;5059865;28;20012;-63
2021/11/22 12:38:45;;;;;;;38.42;25.50;;;11.10;63.90;;;;;;5055757;28;20025;-60
2021/11/22 12:41:25;;;;;;;40.75;26.00;;;11.10;63.90;;;;;;5057998;28;20095;-60
2021/11/22 12:43:56;;;;;;;37.60;26.75;;;11.10;64.70;;;;;;5062377;28;20040;-64